sensor_id;sensor_type;location;lat;lon;timestamp;P1;durP1;ratioP1;P2;durP2;ratioP2
42726;SDS011;28372;56.832;60.658;2023-08-21T00:00:04;6.03;;;2.72;;
42726;SDS011;28372;56.832;60.658;2023-08-21T00:02:32;7.35;;;2.42;;
42726;SDS011;28372;56.832;60.658;2023-08-21T00:05:18;5.80;;;2.78;;
42726;SDS011;28372;56.832;60.658;2023-08-21T00:07:46;6.97;;;2.85;;
42726;SDS011;28372;56.832;60.658;2023-08-21T00:10:18;8.02;;;3.22;;
42726;SDS011;28372;56.832;60.658;2023-08-21T00:12:45;7.35;;;3.05;;
42726;SDS011;28372;56.832;60.658;2023-08-21T00:15:13;12.13;;;4.53;;
42726;SDS011;28372;56.832;60.658;2023-08-21T00:17:41;10.43;;;4.80;;
42726;SDS011;28372;56.832;60.658;2023-08-21T00:20:15;12.38;;;4.88;;
42726;SDS011;28372;56.832;60.658;2023-08-21T00:22:42;13.88;;;6.10;;
42726;SDS011;28372;56.832;60.658;2023-08-21T00:25:10;13.20;;;5.90;;
42726;SDS011;28372;56.832;60.658;2023-08-21T00:27:38;13.85;;;5.55;;
42726;SDS011;28372;56.832;60.658;2023-08-21T00:30:05;15.18;;;5.82;;
42726;SDS011;28372;56.832;60.658;2023-08-21T00:32:33;12.90;;;5.03;;
42726;SDS011;28372;56.832;60.658;2023-08-21T00:35:02;17.38;;;6.43;;
42726;SDS011;28372;56.832;60.658;2023-08-21T00:37:29;14.80;;;6.10;;
42726;SDS011;28372;56.832;60.658;2023-08-21T00:39:57;16.27;;;6.32;;
42726;SDS011;28372;56.832;60.658;2023-08-21T00:42:25;15.52;;;6.45;;
42726;SDS011;28372;56.832;60.658;2023-08-21T00:44:53;17.00;;;6.10;;
42726;SDS011;28372;56.832;60.658;2023-08-21T00:47:22;13.07;;;5.70;;
42726;SDS011;28372;56.832;60.658;2023-08-21T00:49:50;14.43;;;5.95;;
42726;SDS011;28372;56.832;60.658;2023-08-21T00:52:18;14.10;;;6.18;;
42726;SDS011;28372;56.832;60.658;2023-08-21T00:54:46;14.52;;;5.60;;
42726;SDS011;28372;56.832;60.658;2023-08-21T00:57:13;15.55;;;5.95;;
42726;SDS011;28372;56.832;60.658;2023-08-21T00:59:41;14.98;;;6.07;;
42726;SDS011;28372;56.832;60.658;2023-08-21T01:02:09;13.10;;;5.72;;
42726;SDS011;28372;56.832;60.658;2023-08-21T01:04:37;15.55;;;6.28;;
42726;SDS011;28372;56.832;60.658;2023-08-21T01:07:05;15.48;;;7.50;;
42726;SDS011;28372;56.832;60.658;2023-08-21T01:09:43;16.05;;;6.88;;
42726;SDS011;28372;56.832;60.658;2023-08-21T01:12:55;18.67;;;8.00;;
42726;SDS011;28372;56.832;60.658;2023-08-21T01:15:33;18.13;;;8.60;;
42726;SDS011;28372;56.832;60.658;2023-08-21T01:18:01;21.83;;;7.38;;
42726;SDS011;28372;56.832;60.658;2023-08-21T01:20:30;14.40;;;5.75;;
42726;SDS011;28372;56.832;60.658;2023-08-21T01:23:02;11.40;;;5.40;;
42726;SDS011;28372;56.832;60.658;2023-08-21T01:25:32;18.15;;;6.35;;
42726;SDS011;28372;56.832;60.658;2023-08-21T01:28:01;10.13;;;4.50;;
42726;SDS011;28372;56.832;60.658;2023-08-21T01:30:29;10.15;;;4.53;;
42726;SDS011;28372;56.832;60.658;2023-08-21T01:33:06;8.95;;;3.92;;
42726;SDS011;28372;56.832;60.658;2023-08-21T01:35:38;8.10;;;3.53;;
42726;SDS011;28372;56.832;60.658;2023-08-21T01:38:07;9.93;;;3.20;;
42726;SDS011;28372;56.832;60.658;2023-08-21T01:40:35;8.13;;;2.97;;
42726;SDS011;28372;56.832;60.658;2023-08-21T01:43:02;7.00;;;3.10;;
42726;SDS011;28372;56.832;60.658;2023-08-21T01:45:30;8.43;;;3.28;;
42726;SDS011;28372;56.832;60.658;2023-08-21T01:47:58;10.18;;;3.50;;
42726;SDS011;28372;56.832;60.658;2023-08-21T01:50:27;8.23;;;3.63;;
42726;SDS011;28372;56.832;60.658;2023-08-21T01:52:55;9.05;;;3.38;;
42726;SDS011;28372;56.832;60.658;2023-08-21T01:55:22;12.82;;;3.90;;
42726;SDS011;28372;56.832;60.658;2023-08-21T01:57:50;11.75;;;3.60;;
42726;SDS011;28372;56.832;60.658;2023-08-21T02:00:18;9.38;;;3.47;;
42726;SDS011;28372;56.832;60.658;2023-08-21T02:02:46;14.25;;;4.10;;
42726;SDS011;28372;56.832;60.658;2023-08-21T02:05:14;14.77;;;3.60;;
42726;SDS011;28372;56.832;60.658;2023-08-21T02:07:41;10.55;;;3.78;;
42726;SDS011;28372;56.832;60.658;2023-08-21T02:10:10;10.75;;;3.45;;
42726;SDS011;28372;56.832;60.658;2023-08-21T02:12:38;9.32;;;3.08;;
42726;SDS011;28372;56.832;60.658;2023-08-21T02:15:08;8.13;;;3.20;;
42726;SDS011;28372;56.832;60.658;2023-08-21T02:17:37;8.98;;;3.33;;
42726;SDS011;28372;56.832;60.658;2023-08-21T02:20:05;7.85;;;2.90;;
42726;SDS011;28372;56.832;60.658;2023-08-21T02:22:34;7.88;;;3.17;;
42726;SDS011;28372;56.832;60.658;2023-08-21T02:25:02;9.15;;;3.38;;
42726;SDS011;28372;56.832;60.658;2023-08-21T02:27:30;9.35;;;3.72;;
42726;SDS011;28372;56.832;60.658;2023-08-21T02:29:58;9.38;;;3.67;;
42726;SDS011;28372;56.832;60.658;2023-08-21T02:32:26;7.70;;;3.15;;
42726;SDS011;28372;56.832;60.658;2023-08-21T02:34:53;8.43;;;3.50;;
42726;SDS011;28372;56.832;60.658;2023-08-21T02:37:21;9.10;;;3.55;;
42726;SDS011;28372;56.832;60.658;2023-08-21T02:39:49;9.63;;;3.65;;
42726;SDS011;28372;56.832;60.658;2023-08-21T02:42:16;12.10;;;3.70;;
42726;SDS011;28372;56.832;60.658;2023-08-21T02:44:44;10.77;;;4.15;;
42726;SDS011;28372;56.832;60.658;2023-08-21T02:47:12;13.13;;;4.45;;
42726;SDS011;28372;56.832;60.658;2023-08-21T02:49:40;12.27;;;5.57;;
42726;SDS011;28372;56.832;60.658;2023-08-21T02:52:07;15.50;;;6.07;;
42726;SDS011;28372;56.832;60.658;2023-08-21T02:54:35;17.65;;;6.07;;
42726;SDS011;28372;56.832;60.658;2023-08-21T02:57:03;15.95;;;5.93;;
42726;SDS011;28372;56.832;60.658;2023-08-21T02:59:31;16.60;;;5.55;;
42726;SDS011;28372;56.832;60.658;2023-08-21T03:01:59;15.75;;;5.38;;
42726;SDS011;28372;56.832;60.658;2023-08-21T03:04:26;16.52;;;5.75;;
42726;SDS011;28372;56.832;60.658;2023-08-21T03:06:54;17.88;;;5.95;;
42726;SDS011;28372;56.832;60.658;2023-08-21T03:09:22;16.23;;;5.30;;
42726;SDS011;28372;56.832;60.658;2023-08-21T03:11:49;18.25;;;6.28;;
42726;SDS011;28372;56.832;60.658;2023-08-21T03:14:17;13.05;;;5.43;;
42726;SDS011;28372;56.832;60.658;2023-08-21T03:16:45;10.45;;;4.15;;
42726;SDS011;28372;56.832;60.658;2023-08-21T03:19:12;11.05;;;4.13;;
42726;SDS011;28372;56.832;60.658;2023-08-21T03:21:40;17.20;;;4.97;;
42726;SDS011;28372;56.832;60.658;2023-08-21T03:24:08;10.45;;;3.60;;
42726;SDS011;28372;56.832;60.658;2023-08-21T03:26:36;9.20;;;3.42;;
42726;SDS011;28372;56.832;60.658;2023-08-21T03:29:04;8.98;;;2.97;;
42726;SDS011;28372;56.832;60.658;2023-08-21T03:31:31;8.65;;;2.63;;
42726;SDS011;28372;56.832;60.658;2023-08-21T03:33:59;8.23;;;2.78;;
42726;SDS011;28372;56.832;60.658;2023-08-21T03:36:27;7.20;;;2.70;;
42726;SDS011;28372;56.832;60.658;2023-08-21T03:39:01;8.05;;;2.90;;
42726;SDS011;28372;56.832;60.658;2023-08-21T03:41:31;8.18;;;2.60;;
42726;SDS011;28372;56.832;60.658;2023-08-21T03:43:59;7.70;;;2.65;;
42726;SDS011;28372;56.832;60.658;2023-08-21T03:46:27;7.18;;;2.55;;
42726;SDS011;28372;56.832;60.658;2023-08-21T03:48:55;9.02;;;3.10;;
42726;SDS011;28372;56.832;60.658;2023-08-21T03:51:23;9.70;;;2.88;;
42726;SDS011;28372;56.832;60.658;2023-08-21T03:53:50;6.57;;;2.53;;
42726;SDS011;28372;56.832;60.658;2023-08-21T03:56:18;9.05;;;2.80;;
42726;SDS011;28372;56.832;60.658;2023-08-21T03:58:46;9.63;;;2.67;;
42726;SDS011;28372;56.832;60.658;2023-08-21T04:01:15;6.72;;;2.05;;
42726;SDS011;28372;56.832;60.658;2023-08-21T04:03:43;7.07;;;2.40;;
42726;SDS011;28372;56.832;60.658;2023-08-21T04:06:11;5.55;;;2.40;;
42726;SDS011;28372;56.832;60.658;2023-08-21T04:08:39;7.65;;;2.72;;
42726;SDS011;28372;56.832;60.658;2023-08-21T04:11:07;9.02;;;2.88;;
42726;SDS011;28372;56.832;60.658;2023-08-21T04:13:34;8.57;;;3.10;;
42726;SDS011;28372;56.832;60.658;2023-08-21T04:16:02;7.22;;;2.55;;
42726;SDS011;28372;56.832;60.658;2023-08-21T04:18:30;8.27;;;2.70;;
42726;SDS011;28372;56.832;60.658;2023-08-21T04:21:08;8.90;;;2.70;;
42726;SDS011;28372;56.832;60.658;2023-08-21T04:23:36;7.95;;;2.50;;
42726;SDS011;28372;56.832;60.658;2023-08-21T04:26:04;6.70;;;2.38;;
42726;SDS011;28372;56.832;60.658;2023-08-21T04:28:33;6.43;;;2.05;;
42726;SDS011;28372;56.832;60.658;2023-08-21T04:31:05;6.97;;;2.00;;
42726;SDS011;28372;56.832;60.658;2023-08-21T04:33:34;9.32;;;2.40;;
42726;SDS011;28372;56.832;60.658;2023-08-21T04:36:03;6.22;;;2.20;;
42726;SDS011;28372;56.832;60.658;2023-08-21T04:38:31;7.35;;;2.28;;
42726;SDS011;28372;56.832;60.658;2023-08-21T04:41:08;7.25;;;2.20;;
42726;SDS011;28372;56.832;60.658;2023-08-21T04:43:41;9.50;;;2.40;;
42726;SDS011;28372;56.832;60.658;2023-08-21T04:46:09;6.25;;;1.90;;
42726;SDS011;28372;56.832;60.658;2023-08-21T04:48:40;6.20;;;1.77;;
42726;SDS011;28372;56.832;60.658;2023-08-21T04:51:08;4.88;;;1.98;;
42726;SDS011;28372;56.832;60.658;2023-08-21T04:53:36;9.82;;;1.92;;
42726;SDS011;28372;56.832;60.658;2023-08-21T04:56:08;5.88;;;1.98;;
42726;SDS011;28372;56.832;60.658;2023-08-21T04:58:36;11.02;;;2.45;;
42726;SDS011;28372;56.832;60.658;2023-08-21T05:01:05;8.23;;;2.33;;
42726;SDS011;28372;56.832;60.658;2023-08-21T05:03:36;6.93;;;2.30;;
42726;SDS011;28372;56.832;60.658;2023-08-21T05:06:05;8.13;;;2.38;;
42726;SDS011;28372;56.832;60.658;2023-08-21T05:08:33;6.65;;;2.10;;
42726;SDS011;28372;56.832;60.658;2023-08-21T05:11:04;8.18;;;2.13;;
42726;SDS011;28372;56.832;60.658;2023-08-21T05:13:33;12.60;;;2.60;;
42726;SDS011;28372;56.832;60.658;2023-08-21T05:16:01;10.13;;;2.60;;
42726;SDS011;28372;56.832;60.658;2023-08-21T05:18:34;9.40;;;2.50;;
42726;SDS011;28372;56.832;60.658;2023-08-21T05:21:02;5.35;;;2.00;;
42726;SDS011;28372;56.832;60.658;2023-08-21T05:23:31;6.80;;;2.50;;
42726;SDS011;28372;56.832;60.658;2023-08-21T05:26:03;9.02;;;2.72;;
42726;SDS011;28372;56.832;60.658;2023-08-21T05:28:31;7.40;;;1.98;;
42726;SDS011;28372;56.832;60.658;2023-08-21T05:30:59;8.73;;;2.60;;
42726;SDS011;28372;56.832;60.658;2023-08-21T05:33:32;9.77;;;2.70;;
42726;SDS011;28372;56.832;60.658;2023-08-21T05:36:00;11.50;;;2.58;;
42726;SDS011;28372;56.832;60.658;2023-08-21T05:38:28;8.82;;;2.63;;
42726;SDS011;28372;56.832;60.658;2023-08-21T05:40:55;12.80;;;2.90;;
42726;SDS011;28372;56.832;60.658;2023-08-21T05:43:24;7.85;;;2.60;;
42726;SDS011;28372;56.832;60.658;2023-08-21T05:45:53;10.70;;;2.80;;
42726;SDS011;28372;56.832;60.658;2023-08-21T05:48:21;7.80;;;2.50;;
42726;SDS011;28372;56.832;60.658;2023-08-21T05:50:52;13.65;;;2.80;;
42726;SDS011;28372;56.832;60.658;2023-08-21T05:53:20;10.75;;;3.35;;
42726;SDS011;28372;56.832;60.658;2023-08-21T05:55:48;10.38;;;3.50;;
42726;SDS011;28372;56.832;60.658;2023-08-21T05:58:15;9.90;;;3.53;;
42726;SDS011;28372;56.832;60.658;2023-08-21T06:00:43;11.00;;;3.58;;
42726;SDS011;28372;56.832;60.658;2023-08-21T06:03:11;9.85;;;3.75;;
42726;SDS011;28372;56.832;60.658;2023-08-21T06:05:52;10.00;;;3.85;;
42726;SDS011;28372;56.832;60.658;2023-08-21T06:08:22;8.43;;;3.55;;
42726;SDS011;28372;56.832;60.658;2023-08-21T06:10:52;12.65;;;3.78;;
42726;SDS011;28372;56.832;60.658;2023-08-21T06:13:20;9.73;;;3.40;;
42726;SDS011;28372;56.832;60.658;2023-08-21T06:15:51;9.93;;;3.92;;
42726;SDS011;28372;56.832;60.658;2023-08-21T06:18:20;7.90;;;3.92;;
42726;SDS011;28372;56.832;60.658;2023-08-21T06:20:48;15.50;;;4.30;;
42726;SDS011;28372;56.832;60.658;2023-08-21T06:23:20;11.23;;;3.78;;
42726;SDS011;28372;56.832;60.658;2023-08-21T06:25:48;12.52;;;3.40;;
42726;SDS011;28372;56.832;60.658;2023-08-21T06:28:19;12.95;;;3.95;;
42726;SDS011;28372;56.832;60.658;2023-08-21T06:30:47;10.52;;;4.13;;
42726;SDS011;28372;56.832;60.658;2023-08-21T06:33:23;13.88;;;4.85;;
42726;SDS011;28372;56.832;60.658;2023-08-21T06:35:51;14.05;;;4.30;;
42726;SDS011;28372;56.832;60.658;2023-08-21T06:38:19;11.55;;;3.67;;
42726;SDS011;28372;56.832;60.658;2023-08-21T06:40:46;12.10;;;4.10;;
42726;SDS011;28372;56.832;60.658;2023-08-21T06:43:14;16.70;;;4.25;;
42726;SDS011;28372;56.832;60.658;2023-08-21T06:45:46;12.90;;;4.05;;
42726;SDS011;28372;56.832;60.658;2023-08-21T06:48:14;19.38;;;4.25;;
42726;SDS011;28372;56.832;60.658;2023-08-21T06:50:42;14.18;;;4.07;;
42726;SDS011;28372;56.832;60.658;2023-08-21T06:53:09;11.38;;;4.20;;
42726;SDS011;28372;56.832;60.658;2023-08-21T06:55:37;12.40;;;4.07;;
42726;SDS011;28372;56.832;60.658;2023-08-21T06:58:04;15.38;;;4.10;;
42726;SDS011;28372;56.832;60.658;2023-08-21T07:00:32;13.95;;;4.32;;
42726;SDS011;28372;56.832;60.658;2023-08-21T07:03:01;13.15;;;4.32;;
42726;SDS011;28372;56.832;60.658;2023-08-21T07:05:30;15.25;;;4.70;;
42726;SDS011;28372;56.832;60.658;2023-08-21T07:07:58;15.20;;;4.57;;
42726;SDS011;28372;56.832;60.658;2023-08-21T07:10:27;11.52;;;4.38;;
42726;SDS011;28372;56.832;60.658;2023-08-21T07:12:56;17.45;;;4.80;;
42726;SDS011;28372;56.832;60.658;2023-08-21T07:15:24;11.60;;;4.57;;
42726;SDS011;28372;56.832;60.658;2023-08-21T07:17:52;15.50;;;4.20;;
42726;SDS011;28372;56.832;60.658;2023-08-21T07:20:20;14.57;;;4.50;;
42726;SDS011;28372;56.832;60.658;2023-08-21T07:22:47;9.18;;;4.00;;
42726;SDS011;28372;56.832;60.658;2023-08-21T07:25:18;10.02;;;3.95;;
42726;SDS011;28372;56.832;60.658;2023-08-21T07:27:49;12.85;;;4.10;;
42726;SDS011;28372;56.832;60.658;2023-08-21T07:30:16;12.85;;;4.85;;
42726;SDS011;28372;56.832;60.658;2023-08-21T07:32:45;12.23;;;4.05;;
42726;SDS011;28372;56.832;60.658;2023-08-21T07:35:14;12.40;;;4.57;;
42726;SDS011;28372;56.832;60.658;2023-08-21T07:37:45;12.13;;;4.60;;
42726;SDS011;28372;56.832;60.658;2023-08-21T07:40:13;11.15;;;4.57;;
42726;SDS011;28372;56.832;60.658;2023-08-21T07:42:41;9.82;;;4.18;;
42726;SDS011;28372;56.832;60.658;2023-08-21T07:45:08;9.35;;;4.60;;
42726;SDS011;28372;56.832;60.658;2023-08-21T07:47:37;10.07;;;4.68;;
42726;SDS011;28372;56.832;60.658;2023-08-21T07:50:05;10.32;;;4.68;;
42726;SDS011;28372;56.832;60.658;2023-08-21T07:52:35;9.43;;;4.28;;
42726;SDS011;28372;56.832;60.658;2023-08-21T07:55:04;7.25;;;4.40;;
42726;SDS011;28372;56.832;60.658;2023-08-21T07:57:32;10.02;;;4.30;;
42726;SDS011;28372;56.832;60.658;2023-08-21T07:59:59;9.27;;;4.43;;
42726;SDS011;28372;56.832;60.658;2023-08-21T08:02:29;12.25;;;4.80;;
42726;SDS011;28372;56.832;60.658;2023-08-21T08:04:57;11.55;;;4.63;;
42726;SDS011;28372;56.832;60.658;2023-08-21T08:07:25;9.27;;;4.82;;
42726;SDS011;28372;56.832;60.658;2023-08-21T08:09:53;8.40;;;4.60;;
42726;SDS011;28372;56.832;60.658;2023-08-21T08:12:20;8.38;;;4.60;;
42726;SDS011;28372;56.832;60.658;2023-08-21T08:14:48;10.50;;;4.88;;
42726;SDS011;28372;56.832;60.658;2023-08-21T08:17:16;10.55;;;5.07;;
42726;SDS011;28372;56.832;60.658;2023-08-21T08:19:43;9.00;;;4.80;;
42726;SDS011;28372;56.832;60.658;2023-08-21T08:22:11;8.20;;;4.55;;
42726;SDS011;28372;56.832;60.658;2023-08-21T08:24:39;9.48;;;4.30;;
42726;SDS011;28372;56.832;60.658;2023-08-21T08:27:06;7.18;;;4.60;;
42726;SDS011;28372;56.832;60.658;2023-08-21T08:29:34;10.07;;;4.63;;
42726;SDS011;28372;56.832;60.658;2023-08-21T08:32:02;10.77;;;4.32;;
42726;SDS011;28372;56.832;60.658;2023-08-21T08:34:30;8.88;;;4.43;;
42726;SDS011;28372;56.832;60.658;2023-08-21T08:36:57;7.38;;;4.45;;
42726;SDS011;28372;56.832;60.658;2023-08-21T08:39:25;7.75;;;4.28;;
42726;SDS011;28372;56.832;60.658;2023-08-21T08:41:55;10.20;;;4.68;;
42726;SDS011;28372;56.832;60.658;2023-08-21T08:44:26;7.95;;;4.40;;
42726;SDS011;28372;56.832;60.658;2023-08-21T08:46:55;9.43;;;4.78;;
42726;SDS011;28372;56.832;60.658;2023-08-21T08:49:23;9.82;;;4.90;;
42726;SDS011;28372;56.832;60.658;2023-08-21T08:51:51;10.63;;;4.68;;
42726;SDS011;28372;56.832;60.658;2023-08-21T08:54:21;7.90;;;4.65;;
42726;SDS011;28372;56.832;60.658;2023-08-21T08:56:50;10.07;;;5.15;;
42726;SDS011;28372;56.832;60.658;2023-08-21T08:59:17;7.10;;;4.65;;
42726;SDS011;28372;56.832;60.658;2023-08-21T09:01:47;7.43;;;4.78;;
42726;SDS011;28372;56.832;60.658;2023-08-21T09:04:16;7.90;;;4.20;;
42726;SDS011;28372;56.832;60.658;2023-08-21T09:06:45;8.98;;;4.40;;
42726;SDS011;28372;56.832;60.658;2023-08-21T09:09:13;10.25;;;4.95;;
42726;SDS011;28372;56.832;60.658;2023-08-21T09:11:46;11.15;;;4.85;;
42726;SDS011;28372;56.832;60.658;2023-08-21T09:14:15;8.38;;;4.70;;
42726;SDS011;28372;56.832;60.658;2023-08-21T09:16:58;7.53;;;4.32;;
42726;SDS011;28372;56.832;60.658;2023-08-21T09:19:31;9.10;;;4.47;;
42726;SDS011;28372;56.832;60.658;2023-08-21T09:22:09;7.05;;;4.13;;
42726;SDS011;28372;56.832;60.658;2023-08-21T09:24:39;9.02;;;4.47;;
42726;SDS011;28372;56.832;60.658;2023-08-21T09:27:13;7.82;;;4.47;;
42726;SDS011;28372;56.832;60.658;2023-08-21T09:29:42;9.38;;;4.30;;
42726;SDS011;28372;56.832;60.658;2023-08-21T09:32:10;10.98;;;4.57;;
42726;SDS011;28372;56.832;60.658;2023-08-21T09:34:38;7.18;;;3.92;;
42726;SDS011;28372;56.832;60.658;2023-08-21T09:37:07;5.45;;;3.65;;
42726;SDS011;28372;56.832;60.658;2023-08-21T09:39:36;7.80;;;4.05;;
42726;SDS011;28372;56.832;60.658;2023-08-21T09:42:05;10.63;;;3.75;;
42726;SDS011;28372;56.832;60.658;2023-08-21T09:44:39;9.30;;;3.92;;
42726;SDS011;28372;56.832;60.658;2023-08-21T09:47:11;8.52;;;4.47;;
42726;SDS011;28372;56.832;60.658;2023-08-21T09:49:39;11.68;;;4.10;;
42726;SDS011;28372;56.832;60.658;2023-08-21T09:52:07;7.55;;;3.95;;
42726;SDS011;28372;56.832;60.658;2023-08-21T09:54:59;13.07;;;4.93;;
42726;SDS011;28372;56.832;60.658;2023-08-21T09:57:29;6.45;;;4.13;;
42726;SDS011;28372;56.832;60.658;2023-08-21T09:59:58;8.20;;;4.20;;
42726;SDS011;28372;56.832;60.658;2023-08-21T10:02:37;8.55;;;3.92;;
42726;SDS011;28372;56.832;60.658;2023-08-21T10:05:06;9.00;;;4.28;;
42726;SDS011;28372;56.832;60.658;2023-08-21T10:07:34;5.72;;;3.33;;
42726;SDS011;28372;56.832;60.658;2023-08-21T10:10:02;8.55;;;3.47;;
42726;SDS011;28372;56.832;60.658;2023-08-21T10:12:31;6.63;;;3.70;;
42726;SDS011;28372;56.832;60.658;2023-08-21T10:15:00;8.20;;;3.30;;
42726;SDS011;28372;56.832;60.658;2023-08-21T10:17:30;5.20;;;3.38;;
42726;SDS011;28372;56.832;60.658;2023-08-21T10:20:02;6.32;;;3.50;;
42726;SDS011;28372;56.832;60.658;2023-08-21T10:22:53;5.95;;;3.53;;
42726;SDS011;28372;56.832;60.658;2023-08-21T10:25:25;6.30;;;3.47;;
42726;SDS011;28372;56.832;60.658;2023-08-21T10:27:56;9.50;;;3.20;;
42726;SDS011;28372;56.832;60.658;2023-08-21T10:30:27;8.40;;;3.50;;
42726;SDS011;28372;56.832;60.658;2023-08-21T10:32:59;7.93;;;3.75;;
42726;SDS011;28372;56.832;60.658;2023-08-21T10:35:29;7.38;;;3.40;;
42726;SDS011;28372;56.832;60.658;2023-08-21T10:38:14;8.45;;;3.50;;
42726;SDS011;28372;56.832;60.658;2023-08-21T10:41:04;7.47;;;3.40;;
42726;SDS011;28372;56.832;60.658;2023-08-21T10:43:40;5.75;;;3.20;;
42726;SDS011;28372;56.832;60.658;2023-08-21T10:46:12;6.55;;;2.75;;
42726;SDS011;28372;56.832;60.658;2023-08-21T10:48:42;7.70;;;3.42;;
42726;SDS011;28372;56.832;60.658;2023-08-21T10:51:10;8.25;;;3.35;;
42726;SDS011;28372;56.832;60.658;2023-08-21T10:53:40;6.78;;;2.90;;
42726;SDS011;28372;56.832;60.658;2023-08-21T10:56:11;5.50;;;2.72;;
42726;SDS011;28372;56.832;60.658;2023-08-21T10:58:42;9.43;;;2.90;;
42726;SDS011;28372;56.832;60.658;2023-08-21T11:01:10;7.70;;;2.95;;
42726;SDS011;28372;56.832;60.658;2023-08-21T11:03:40;7.88;;;3.28;;
42726;SDS011;28372;56.832;60.658;2023-08-21T11:06:08;7.45;;;2.63;;
42726;SDS011;28372;56.832;60.658;2023-08-21T11:08:37;8.40;;;2.60;;
42726;SDS011;28372;56.832;60.658;2023-08-21T11:11:05;7.32;;;2.70;;
42726;SDS011;28372;56.832;60.658;2023-08-21T11:13:33;8.30;;;4.50;;
42726;SDS011;28372;56.832;60.658;2023-08-21T11:16:01;8.10;;;3.92;;
42726;SDS011;28372;56.832;60.658;2023-08-21T11:18:35;6.68;;;3.47;;
42726;SDS011;28372;56.832;60.658;2023-08-21T11:21:08;7.22;;;3.03;;
42726;SDS011;28372;56.832;60.658;2023-08-21T11:23:41;4.45;;;2.47;;
42726;SDS011;28372;56.832;60.658;2023-08-21T11:26:10;5.93;;;2.47;;
42726;SDS011;28372;56.832;60.658;2023-08-21T11:28:42;6.38;;;2.70;;
42726;SDS011;28372;56.832;60.658;2023-08-21T11:31:09;5.43;;;2.40;;
42726;SDS011;28372;56.832;60.658;2023-08-21T11:33:37;5.88;;;2.33;;
42726;SDS011;28372;56.832;60.658;2023-08-21T11:36:06;5.57;;;2.40;;
42726;SDS011;28372;56.832;60.658;2023-08-21T11:38:33;7.72;;;2.30;;
42726;SDS011;28372;56.832;60.658;2023-08-21T11:41:02;7.45;;;2.55;;
42726;SDS011;28372;56.832;60.658;2023-08-21T11:43:36;6.80;;;2.80;;
42726;SDS011;28372;56.832;60.658;2023-08-21T11:46:09;5.88;;;2.30;;
42726;SDS011;28372;56.832;60.658;2023-08-21T11:48:38;6.68;;;2.45;;
42726;SDS011;28372;56.832;60.658;2023-08-21T11:51:07;5.25;;;2.10;;
42726;SDS011;28372;56.832;60.658;2023-08-21T11:56:22;7.05;;;2.30;;
42726;SDS011;28372;56.832;60.658;2023-08-21T11:58:56;4.80;;;2.30;;
42726;SDS011;28372;56.832;60.658;2023-08-21T12:01:26;5.82;;;2.05;;
42726;SDS011;28372;56.832;60.658;2023-08-21T12:03:53;5.25;;;2.22;;
42726;SDS011;28372;56.832;60.658;2023-08-21T12:06:23;7.47;;;1.90;;
42726;SDS011;28372;56.832;60.658;2023-08-21T12:08:52;7.78;;;1.90;;
42726;SDS011;28372;56.832;60.658;2023-08-21T12:11:20;4.25;;;1.95;;
42726;SDS011;28372;56.832;60.658;2023-08-21T12:13:49;4.78;;;1.85;;
42726;SDS011;28372;56.832;60.658;2023-08-21T12:16:18;4.07;;;1.70;;
42726;SDS011;28372;56.832;60.658;2023-08-21T12:18:46;4.43;;;1.98;;
42726;SDS011;28372;56.832;60.658;2023-08-21T12:21:15;5.47;;;2.00;;
42726;SDS011;28372;56.832;60.658;2023-08-21T12:23:43;6.70;;;1.70;;
42726;SDS011;28372;56.832;60.658;2023-08-21T12:26:11;6.28;;;1.85;;
42726;SDS011;28372;56.832;60.658;2023-08-21T12:28:38;6.78;;;2.00;;
42726;SDS011;28372;56.832;60.658;2023-08-21T12:31:06;4.00;;;1.75;;
42726;SDS011;28372;56.832;60.658;2023-08-21T12:33:34;4.93;;;1.65;;
42726;SDS011;28372;56.832;60.658;2023-08-21T12:36:05;5.95;;;2.22;;
42726;SDS011;28372;56.832;60.658;2023-08-21T12:38:34;5.32;;;2.47;;
42726;SDS011;28372;56.832;60.658;2023-08-21T12:41:03;6.05;;;3.10;;
42726;SDS011;28372;56.832;60.658;2023-08-21T12:43:31;6.22;;;2.13;;
42726;SDS011;28372;56.832;60.658;2023-08-21T12:45:59;2.88;;;1.55;;
42726;SDS011;28372;56.832;60.658;2023-08-21T12:48:27;5.63;;;1.60;;
42726;SDS011;28372;56.832;60.658;2023-08-21T12:50:55;5.20;;;1.88;;
42726;SDS011;28372;56.832;60.658;2023-08-21T12:53:23;5.07;;;1.77;;
42726;SDS011;28372;56.832;60.658;2023-08-21T12:55:51;4.00;;;1.67;;
42726;SDS011;28372;56.832;60.658;2023-08-21T12:58:18;5.53;;;2.10;;
42726;SDS011;28372;56.832;60.658;2023-08-21T13:00:46;4.10;;;1.58;;
42726;SDS011;28372;56.832;60.658;2023-08-21T13:03:14;5.95;;;2.10;;
42726;SDS011;28372;56.832;60.658;2023-08-21T13:05:43;5.20;;;1.95;;
42726;SDS011;28372;56.832;60.658;2023-08-21T13:08:11;4.25;;;1.63;;
42726;SDS011;28372;56.832;60.658;2023-08-21T13:10:38;6.13;;;1.48;;
42726;SDS011;28372;56.832;60.658;2023-08-21T13:13:07;4.75;;;1.60;;
42726;SDS011;28372;56.832;60.658;2023-08-21T13:15:35;5.03;;;2.13;;
42726;SDS011;28372;56.832;60.658;2023-08-21T13:18:04;5.82;;;1.88;;
42726;SDS011;28372;56.832;60.658;2023-08-21T13:20:32;4.90;;;2.47;;
42726;SDS011;28372;56.832;60.658;2023-08-21T13:23:01;5.32;;;1.50;;
42726;SDS011;28372;56.832;60.658;2023-08-21T13:25:29;4.00;;;1.50;;
42726;SDS011;28372;56.832;60.658;2023-08-21T13:27:59;2.53;;;1.30;;
42726;SDS011;28372;56.832;60.658;2023-08-21T13:30:28;4.28;;;1.30;;
42726;SDS011;28372;56.832;60.658;2023-08-21T13:32:57;3.53;;;1.17;;
42726;SDS011;28372;56.832;60.658;2023-08-21T13:35:26;3.88;;;1.13;;
42726;SDS011;28372;56.832;60.658;2023-08-21T13:37:53;3.08;;;1.20;;
42726;SDS011;28372;56.832;60.658;2023-08-21T13:40:21;4.03;;;1.20;;
42726;SDS011;28372;56.832;60.658;2023-08-21T13:42:51;2.92;;;1.33;;
42726;SDS011;28372;56.832;60.658;2023-08-21T13:45:20;3.60;;;1.10;;
42726;SDS011;28372;56.832;60.658;2023-08-21T13:47:51;4.50;;;0.90;;
42726;SDS011;28372;56.832;60.658;2023-08-21T13:50:22;4.47;;;1.30;;
42726;SDS011;28372;56.832;60.658;2023-08-21T13:52:50;4.25;;;1.10;;
42726;SDS011;28372;56.832;60.658;2023-08-21T13:55:18;4.20;;;1.30;;
42726;SDS011;28372;56.832;60.658;2023-08-21T13:57:46;5.28;;;1.40;;
42726;SDS011;28372;56.832;60.658;2023-08-21T14:00:13;4.70;;;1.40;;
42726;SDS011;28372;56.832;60.658;2023-08-21T14:02:45;3.47;;;1.48;;
42726;SDS011;28372;56.832;60.658;2023-08-21T14:05:13;4.13;;;1.42;;
42726;SDS011;28372;56.832;60.658;2023-08-21T14:07:41;3.45;;;1.20;;
42726;SDS011;28372;56.832;60.658;2023-08-21T14:10:09;3.17;;;1.25;;
42726;SDS011;28372;56.832;60.658;2023-08-21T14:12:37;4.63;;;1.08;;
42726;SDS011;28372;56.832;60.658;2023-08-21T14:15:09;3.47;;;1.10;;
42726;SDS011;28372;56.832;60.658;2023-08-21T14:17:39;3.85;;;1.20;;
42726;SDS011;28372;56.832;60.658;2023-08-21T14:20:07;3.28;;;1.10;;
42726;SDS011;28372;56.832;60.658;2023-08-21T14:22:35;3.25;;;1.00;;
42726;SDS011;28372;56.832;60.658;2023-08-21T14:25:03;5.88;;;1.10;;
42726;SDS011;28372;56.832;60.658;2023-08-21T14:27:34;7.00;;;1.25;;
42726;SDS011;28372;56.832;60.658;2023-08-21T14:30:03;3.33;;;1.20;;
42726;SDS011;28372;56.832;60.658;2023-08-21T14:32:34;4.03;;;1.50;;
42726;SDS011;28372;56.832;60.658;2023-08-21T14:35:04;2.88;;;1.40;;
42726;SDS011;28372;56.832;60.658;2023-08-21T14:37:37;2.38;;;1.13;;
42726;SDS011;28372;56.832;60.658;2023-08-21T14:40:06;4.50;;;1.30;;
42726;SDS011;28372;56.832;60.658;2023-08-21T14:42:35;3.65;;;1.20;;
42726;SDS011;28372;56.832;60.658;2023-08-21T14:45:05;4.45;;;1.30;;